Time;durP1;ratioP1;P1;durP2;ratioP2;P2;SDS_P1;SDS_P2;PMS_P1;PMS_P2;Temp;Humidity;BMP_temperature;BMP_pressure;BME280_temperature;BME280_humidity;BME280_pressure;Samples;Min_cycle;Max_cycle;Signal;HPM_P1;HPM_P2
2023/05/02 00:00:15;;;;;;;22.98;16.23;;;12.00;99.90;;;;;;5072797;28;20076;-32
2023/05/02 00:02:41;;;;;;;26.15;16.63;;;11.80;99.90;;;;;;5073164;28;20501;-32
2023/05/02 00:05:07;;;;;;;29.02;17.67;;;11.80;99.90;;;;;;5072819;28;20115;-32
2023/05/02 00:07:33;;;;;;;25.80;17.33;;;12.00;99.90;;;;;;5073369;28;20111;-32
2023/05/02 00:10:01;;;;;;;24.88;15.68;;;12.00;99.90;;;;;;5074071;28;20067;-32
2023/05/02 00:12:27;;;;;;;25.58;16.77;;;12.00;99.90;;;;;;5077219;28;20068;-32
2023/05/02 00:14:52;;;;;;;24.27;16.15;;;11.90;99.90;;;;;;5058503;28;20537;-32
2023/05/02 00:17:19;;;;;;;26.33;16.40;;;11.90;99.90;;;;;;5085305;28;20040;-32
2023/05/02 00:19:45;;;;;;;23.05;15.02;;;11.90;99.90;;;;;;5073743;28;20139;-30
2023/05/02 00:22:11;;;;;;;22.75;15.80;;;11.90;99.90;;;;;;5073852;28;20048;-30
2023/05/02 00:24:37;;;;;;;22.42;14.65;;;12.10;99.90;;;;;;5073841;28;20035;-30
2023/05/02 00:27:03;;;;;;;22.75;14.98;;;12.00;99.90;;;;;;5056931;28;20082;-30
2023/05/02 00:29:29;;;;;;;27.20;14.18;;;12.10;99.90;;;;;;5073852;28;20044;-30
2023/05/02 00:31:56;;;;;;;19.67;12.40;;;12.00;99.90;;;;;;5073531;28;20105;-30
2023/05/02 00:34:23;;;;;;;16.50;12.02;;;11.90;99.90;;;;;;5073907;28;20402;-30
2023/05/02 00:36:49;;;;;;;18.55;11.35;;;11.80;99.90;;;;;;5053601;28;20041;-30
2023/05/02 00:39:15;;;;;;;14.25;9.75;;;11.80;99.90;;;;;;5065693;28;20616;-30
2023/05/02 00:41:41;;;;;;;18.23;10.43;;;11.80;99.90;;;;;;5073449;28;20135;-30
2023/05/02 00:44:07;;;;;;;16.83;10.82;;;11.90;99.90;;;;;;5065888;28;20037;-30
2023/05/02 00:46:33;;;;;;;15.57;9.20;;;11.90;99.90;;;;;;5066647;28;20040;-30
2023/05/02 00:49:00;;;;;;;12.48;8.88;;;11.70;99.90;;;;;;5073120;28;20436;-30
2023/05/02 00:51:26;;;;;;;13.60;7.93;;;11.60;99.90;;;;;;5073082;28;20040;-30
2023/05/02 00:53:52;;;;;;;11.05;7.30;;;11.60;99.90;;;;;;5073304;28;20036;-30
2023/05/02 00:56:18;;;;;;;11.07;7.50;;;11.80;99.90;;;;;;5073315;28;20041;-30
2023/05/02 00:58:45;;;;;;;8.45;5.53;;;11.60;99.90;;;;;;5073297;28;20047;-30
2023/05/02 01:01:23;;;;;;;5.97;5.30;;;11.50;99.90;;;;;;5072970;28;20040;-30
2023/05/02 01:03:52;;;;;;;6.18;4.53;;;11.50;99.90;;;;;;5073185;28;20490;-30
2023/05/02 01:06:43;;;;;;;5.95;4.78;;;11.60;99.90;;;;;;5073005;28;20067;-30
2023/05/02 01:09:22;;;;;;;6.55;4.60;;;11.50;99.90;;;;;;5071814;28;20040;-30
2023/05/02 01:11:53;;;;;;;6.28;4.43;;;11.40;99.90;;;;;;5072781;28;20032;-30
2023/05/02 01:14:21;;;;;;;7.60;4.60;;;11.30;99.90;;;;;;5073200;28;20041;-30
2023/05/02 01:16:49;;;;;;;7.63;5.20;;;11.20;99.90;;;;;;5072793;28;20084;-30
2023/05/02 01:19:52;;;;;;;6.45;4.78;;;11.30;99.90;;;;;;5073220;28;20042;-30
2023/05/02 01:22:20;;;;;;;7.63;5.43;;;11.20;99.90;;;;;;5014853;28;20065;-30
2023/05/02 01:25:25;;;;;;;9.38;5.65;;;11.10;99.90;;;;;;5057675;28;20059;-30
2023/05/02 01:28:13;;;;;;;13.35;5.43;;;11.20;99.90;;;;;;5065322;28;20389;-30
2023/05/02 01:30:42;;;;;;;11.27;5.75;;;11.20;99.90;;;;;;5072485;28;20101;-30
2023/05/02 01:33:12;;;;;;;11.30;5.90;;;11.00;99.90;;;;;;5072786;28;20048;-30
2023/05/02 01:35:40;;;;;;;11.80;6.00;;;11.10;99.90;;;;;;5069658;28;20386;-30
2023/05/02 01:38:06;;;;;;;9.02;5.57;;;10.90;99.90;;;;;;5072086;28;20069;-30
2023/05/02 01:40:33;;;;;;;11.60;5.97;;;11.00;99.90;;;;;;5072191;28;20115;-30
2023/05/02 01:43:03;;;;;;;9.70;5.90;;;10.90;99.90;;;;;;5071944;28;20040;-30
2023/05/02 01:45:31;;;;;;;9.18;5.50;;;10.90;99.90;;;;;;5055485;28;20575;-30
2023/05/02 01:47:59;;;;;;;9.02;5.13;;;11.10;99.90;;;;;;5072153;28;20028;-30
2023/05/02 01:50:26;;;;;;;9.82;5.22;;;11.00;99.90;;;;;;5072289;28;20111;-30
2023/05/02 01:52:53;;;;;;;9.13;4.70;;;10.80;99.90;;;;;;5072263;28;20036;-30
2023/05/02 01:55:19;;;;;;;7.07;4.72;;;10.90;99.90;;;;;;5072087;28;20098;-30
2023/05/02 01:57:49;;;;;;;8.07;5.10;;;10.90;99.90;;;;;;5072032;28;20441;-30
2023/05/02 02:00:17;;;;;;;7.80;5.13;;;10.80;99.90;;;;;;5071806;28;20075;-30
2023/05/02 02:02:45;;;;;;;7.18;4.53;;;10.80;99.90;;;;;;5071841;28;20036;-30
2023/05/02 02:05:12;;;;;;;8.30;4.10;;;10.90;99.90;;;;;;5073341;28;20489;-30
2023/05/02 02:07:38;;;;;;;10.38;4.80;;;10.80;99.90;;;;;;5072169;28;20090;-30
2023/05/02 02:10:04;;;;;;;6.60;4.47;;;10.90;99.90;;;;;;5071975;28;20036;-30
2023/05/02 02:12:37;;;;;;;9.25;5.07;;;10.70;99.90;;;;;;5065334;28;20165;-30
2023/05/02 02:15:08;;;;;;;7.47;4.72;;;10.70;99.90;;;;;;5071646;28;20037;-30
2023/05/02 02:17:42;;;;;;;11.65;5.13;;;10.70;99.90;;;;;;5071524;28;20440;-29
2023/05/02 02:20:09;;;;;;;;;;;10.60;99.90;;;;;;5071441;28;20048;-30
2023/05/02 02:22:39;;;;;;;6.85;4.43;;;10.50;99.90;;;;;;5072544;28;19920;-30
2023/05/02 02:25:07;;;;;;;9.00;4.78;;;10.40;99.90;;;;;;5071568;28;20178;-30
2023/05/02 02:27:33;;;;;;;7.55;4.45;;;10.50;99.90;;;;;;5071390;28;20037;-30
2023/05/02 02:29:59;;;;;;;5.85;4.60;;;10.50;99.90;;;;;;5071625;28;20490;-30
2023/05/02 02:32:25;;;;;;;6.18;4.60;;;10.30;99.90;;;;;;5071609;28;20036;-30
2023/05/02 02:34:51;;;;;;;7.63;4.43;;;10.40;99.90;;;;;;5071612;28;20046;-30
2023/05/02 02:37:30;;;;;;;12.57;4.45;;;10.40;99.90;;;;;;5070947;28;20520;-30
2023/05/02 02:40:15;;;;;;;7.72;5.28;;;10.50;99.90;;;;;;5071530;28;20114;-30
2023/05/02 02:43:03;;;;;;;6.95;4.85;;;10.40;99.90;;;;;;5203864;27;20402;-31
2023/05/02 02:45:39;;;;;;;10.15;4.57;;;10.50;99.90;;;;;;5170084;27;20125;-31
2023/05/02 02:48:26;;;;;;;7.65;4.72;;;10.30;99.90;;;;;;5164398;27;20041;-31
2023/05/02 02:51:23;;;;;;;10.50;4.57;;;10.50;99.90;;;;;;5156633;27;20445;-31
2023/05/02 02:54:14;;;;;;;8.65;4.70;;;10.50;99.90;;;;;;5161316;27;20052;-31
2023/05/02 02:56:44;;;;;;;6.10;4.72;;;10.50;99.90;;;;;;5169965;27;20030;-31
2023/05/02 02:59:30;;;;;;;8.18;4.22;;;10.40;99.90;;;;;;5153660;27;20046;-31
2023/05/02 03:02:18;;;;;;;6.90;4.22;;;10.30;99.90;;;;;;5152764;27;20046;-30
2023/05/02 03:04:45;;;;;;;6.78;4.45;;;10.40;99.90;;;;;;5154781;27;20514;-31
2023/05/02 03:07:11;;;;;;;9.23;4.15;;;10.40;99.90;;;;;;5173768;27;20034;-31
2023/05/02 03:09:42;;;;;;;7.18;3.58;;;10.20;99.90;;;;;;5158841;27;20750;-31
2023/05/02 03:12:08;;;;;;;9.68;3.80;;;10.30;99.90;;;;;;5163387;27;20045;-31
2023/05/02 03:14:35;;;;;;;11.50;4.53;;;10.10;99.90;;;;;;5160563;27;20030;-31
2023/05/02 03:17:02;;;;;;;8.15;3.80;;;10.10;99.90;;;;;;5165446;27;20415;-31
2023/05/02 03:19:28;;;;;;;11.02;4.43;;;9.90;99.90;;;;;;5167218;27;20034;-31
2023/05/02 03:21:54;;;;;;;13.45;4.57;;;9.80;99.90;;;;;;5164409;27;20086;-30
2023/05/02 03:24:19;;;;;;;15.27;5.22;;;9.90;99.90;;;;;;5169665;27;20040;-30
2023/05/02 03:26:47;;;;;;;16.05;4.80;;;9.80;99.90;;;;;;5154271;27;20029;-31
2023/05/02 03:29:13;;;;;;;12.10;4.97;;;9.70;99.90;;;;;;5156624;27;20030;-31
2023/05/02 03:31:39;;;;;;;13.57;5.18;;;9.70;99.90;;;;;;5155401;27;20042;-31
2023/05/02 03:34:05;;;;;;;16.60;5.47;;;9.50;99.90;;;;;;5160653;27;20551;-31
2023/05/02 03:36:30;;;;;;;16.52;4.75;;;9.50;99.90;;;;;;5172961;27;20094;-31
2023/05/02 03:38:56;;;;;;;14.27;5.32;;;9.50;99.90;;;;;;5163231;27;20120;-31
2023/05/02 03:41:23;;;;;;;12.95;5.03;;;9.50;99.90;;;;;;5172522;27;20045;-31
2023/05/02 03:43:50;;;;;;;17.45;5.03;;;9.40;99.90;;;;;;5187082;27;20034;-31
2023/05/02 03:46:16;;;;;;;19.38;5.53;;;9.30;99.90;;;;;;5154378;27;20077;-31
2023/05/02 03:48:44;;;;;;;19.90;6.20;;;9.40;99.90;;;;;;5157782;27;20035;-31
2023/05/02 03:51:10;;;;;;;16.45;5.65;;;9.30;99.90;;;;;;5167493;27;20045;-31
2023/05/02 03:53:36;;;;;;;20.20;6.13;;;9.30;99.90;;;;;;5141447;27;20500;-31
2023/05/02 03:56:02;;;;;;;17.25;5.93;;;9.20;99.90;;;;;;5137797;27;20046;-31
2023/05/02 03:58:27;;;;;;;23.90;5.07;;;9.10;99.90;;;;;;5147064;27;20093;-31
2023/05/02 04:00:54;;;;;;;20.77;5.35;;;9.00;99.90;;;;;;5158357;27;20038;-30
2023/05/02 04:03:20;;;;;;;21.05;5.45;;;9.00;99.90;;;;;;5148500;27;20507;-30
2023/05/02 04:05:46;;;;;;;19.52;5.65;;;9.00;99.90;;;;;;5158528;27;20041;-31
2023/05/02 04:08:12;;;;;;;14.40;4.97;;;9.00;99.90;;;;;;5151892;27;20031;-31
2023/05/02 04:10:38;;;;;;;20.85;5.45;;;8.90;99.90;;;;;;5148896;27;20034;-31
2023/05/02 04:13:04;;;;;;;18.15;5.90;;;8.80;99.90;;;;;;5152138;27;20088;-31
2023/05/02 04:15:32;;;;;;;15.98;5.63;;;8.80;99.90;;;;;;5140897;27;20058;-31
2023/05/02 04:17:58;;;;;;;18.98;5.00;;;8.80;99.90;;;;;;5139396;27;20057;-31
2023/05/02 04:20:24;;;;;;;17.75;5.63;;;8.80;99.90;;;;;;5137726;27;20483;-31
2023/05/02 04:22:49;;;;;;;20.33;5.70;;;8.80;99.90;;;;;;5154643;27;20485;-31
2023/05/02 04:25:16;;;;;;;15.75;5.18;;;8.80;99.90;;;;;;5151779;27;20030;-31
2023/05/02 04:27:42;;;;;;;11.63;5.68;;;8.80;99.90;;;;;;5144109;27;20123;-30
2023/05/02 04:30:09;;;;;;;15.70;4.93;;;8.80;99.90;;;;;;5154089;27;20084;-30
2023/05/02 04:32:35;;;;;;;13.82;4.35;;;8.80;99.90;;;;;;5141988;27;20035;-32
2023/05/02 04:35:01;;;;;;;19.67;4.68;;;8.80;99.90;;;;;;5152686;27;20038;-30
2023/05/02 04:37:27;;;;;;;11.18;4.22;;;8.60;99.90;;;;;;5135754;27;20049;-31
2023/05/02 04:39:53;;;;;;;12.25;4.30;;;8.70;99.90;;;;;;5152295;27;20048;-31
2023/05/02 04:42:18;;;;;;;15.10;4.38;;;8.70;99.90;;;;;;5136917;27;20407;-31
2023/05/02 04:44:44;;;;;;;15.63;4.25;;;8.60;99.90;;;;;;5148389;27;20030;-30
2023/05/02 04:47:10;;;;;;;15.57;4.10;;;8.50;99.90;;;;;;5141705;27;20042;-31
2023/05/02 04:49:36;;;;;;;12.00;3.85;;;8.60;99.90;;;;;;5142992;27;20119;-30
2023/05/02 04:52:02;;;;;;;16.27;4.32;;;8.60;99.90;;;;;;5149605;27;20093;-30
2023/05/02 04:54:28;;;;;;;17.75;4.00;;;8.60;99.90;;;;;;5144367;27;20073;-31
2023/05/02 04:56:53;;;;;;;9.25;3.45;;;8.60;99.90;;;;;;5136465;27;20070;-31
2023/05/02 04:59:19;;;;;;;10.55;3.38;;;8.60;99.90;;;;;;5147549;27;20392;-31
2023/05/02 05:01:45;;;;;;;12.05;3.47;;;8.60;99.90;;;;;;5150820;27;20080;-31
2023/05/02 05:04:10;;;;;;;9.93;3.95;;;8.60;99.90;;;;;;5135891;27;20034;-31
2023/05/02 05:06:36;;;;;;;8.23;3.53;;;8.60;99.90;;;;;;5145490;27;20399;-30
2023/05/02 05:09:02;;;;;;;7.60;3.08;;;8.50;99.90;;;;;;5139401;27;20030;-31
2023/05/02 05:11:28;;;;;;;10.32;3.05;;;8.50;99.90;;;;;;5149126;27;20039;-31
2023/05/02 05:13:54;;;;;;;7.95;3.60;;;8.60;99.90;;;;;;5149496;27;20122;-31
2023/05/02 05:16:19;;;;;;;11.45;3.60;;;8.60;99.90;;;;;;5150388;27;20107;-31
2023/05/02 05:18:46;;;;;;;6.72;2.72;;;8.70;99.90;;;;;;5142683;27;20034;-31
2023/05/02 05:21:11;;;;;;;9.48;3.33;;;8.70;99.90;;;;;;5157325;27;20382;-31
2023/05/02 05:23:37;;;;;;;9.40;3.10;;;8.70;99.90;;;;;;5155624;27;20040;-30
2023/05/02 05:26:10;;;;;;;9.05;3.53;;;8.70;99.90;;;;;;5155897;27;20034;-31
2023/05/02 05:28:36;;;;;;;10.23;3.40;;;8.80;99.90;;;;;;5168618;27;20468;-31
2023/05/02 05:31:07;;;;;;;8.00;2.47;;;8.80;99.90;;;;;;5153314;27;20113;-31
2023/05/02 05:33:37;;;;;;;7.32;2.92;;;8.80;99.90;;;;;;5139492;27;20091;-31
2023/05/02 05:36:16;;;;;;;8.55;3.20;;;8.90;99.90;;;;;;5143071;27;20052;-31
2023/05/02 05:38:42;;;;;;;7.50;2.78;;;8.90;99.90;;;;;;5149085;27;20364;-31
2023/05/02 05:41:08;;;;;;;9.15;3.63;;;8.90;99.90;;;;;;5152201;27;20034;-31
2023/05/02 05:43:34;;;;;;;9.63;2.95;;;8.90;99.90;;;;;;5150642;27;20042;-31
2023/05/02 05:46:00;;;;;;;7.47;2.67;;;8.90;99.90;;;;;;5156487;27;20044;-31
2023/05/02 05:48:26;;;;;;;5.68;2.20;;;9.00;99.90;;;;;;5144804;27;20034;-31
2023/05/02 05:50:51;;;;;;;5.85;2.08;;;9.00;99.90;;;;;;5149685;27;20056;-31
2023/05/02 05:53:18;;;;;;;8.05;2.28;;;9.00;99.90;;;;;;5138984;27;20042;-31
2023/05/02 05:55:44;;;;;;;4.88;2.08;;;8.90;99.90;;;;;;5141459;27;20369;-31
2023/05/02 05:58:10;;;;;;;8.32;2.20;;;9.10;99.90;;;;;;5145061;27;20042;-30
2023/05/02 06:00:37;;;;;;;6.95;2.38;;;9.00;99.90;;;;;;5155546;27;20042;-31
2023/05/02 06:03:04;;;;;;;9.52;2.75;;;9.00;99.90;;;;;;5149593;27;20059;-31
2023/05/02 06:05:30;;;;;;;11.02;2.20;;;9.20;99.90;;;;;;5136001;27;20031;-30
2023/05/02 06:07:56;;;;;;;7.30;2.47;;;9.20;99.90;;;;;;5152903;27;20041;-30
2023/05/02 06:10:22;;;;;;;4.97;2.42;;;9.30;99.90;;;;;;5144797;27;20113;-30
2023/05/02 06:12:48;;;;;;;5.82;2.25;;;9.40;99.90;;;;;;5143990;27;20571;-30
2023/05/02 06:15:14;;;;;;;8.73;2.78;;;9.40;99.90;;;;;;5143940;27;20031;-30
2023/05/02 06:17:39;;;;;;;6.95;3.22;;;9.40;99.90;;;;;;5151514;27;20034;-30
2023/05/02 06:20:06;;;;;;;6.93;2.70;;;9.50;99.90;;;;;;5137005;27;20114;-31
2023/05/02 06:22:32;;;;;;;5.32;2.72;;;9.60;99.90;;;;;;5149115;27;20510;-30
2023/05/02 06:24:58;;;;;;;6.32;2.80;;;9.60;99.90;;;;;;5147794;27;20022;-30
2023/05/02 06:27:23;;;;;;;5.13;2.83;;;9.60;99.90;;;;;;5156087;27;20034;-30
2023/05/02 06:29:52;;;;;;;12.60;3.35;;;9.50;99.90;;;;;;5143788;27;20034;-31
2023/05/02 06:32:18;;;;;;;6.95;2.58;;;9.50;99.90;;;;;;5147117;27;20046;-29
2023/05/02 06:34:44;;;;;;;8.85;3.10;;;9.50;99.90;;;;;;5155230;27;20030;-30
2023/05/02 06:37:10;;;;;;;9.20;2.97;;;9.50;99.90;;;;;;5151744;27;20041;-30
2023/05/02 06:39:36;;;;;;;6.20;2.88;;;9.50;99.90;;;;;;5174264;27;20041;-30
2023/05/02 06:42:02;;;;;;;6.95;2.97;;;9.50;99.90;;;;;;5144880;27;20030;-30
2023/05/02 06:44:27;;;;;;;8.35;2.58;;;9.50;99.90;;;;;;5141579;27;20337;-31
2023/05/02 06:46:54;;;;;;;6.53;2.85;;;9.50;99.90;;;;;;5149642;27;20113;-30
2023/05/02 06:49:21;;;;;;;8.07;2.83;;;9.70;99.90;;;;;;5135760;27;20477;-30
2023/05/02 06:51:46;;;;;;;9.02;2.80;;;9.60;99.90;;;;;;5146998;27;20077;-30
2023/05/02 06:54:13;;;;;;;6.45;2.67;;;9.70;99.90;;;;;;5155497;27;20439;-30
2023/05/02 06:56:39;;;;;;;10.93;3.10;;;9.70;99.90;;;;;;5145582;27;20429;-30
2023/05/02 06:59:05;;;;;;;10.32;3.70;;;9.80;99.90;;;;;;5151064;27;20035;-30
2023/05/02 07:01:31;;;;;;;8.73;3.03;;;9.90;99.90;;;;;;5135096;27;20092;-30
2023/05/02 07:03:56;;;;;;;7.38;3.70;;;9.80;99.90;;;;;;5135236;27;20041;-30
2023/05/02 07:06:23;;;;;;;9.40;3.10;;;9.90;99.90;;;;;;5141505;27;20030;-30
2023/05/02 07:08:49;;;;;;;11.40;3.30;;;10.00;99.90;;;;;;5145347;27;20360;-30
2023/05/02 07:11:15;;;;;;;10.68;2.97;;;10.00;99.90;;;;;;5132012;27;20045;-30
2023/05/02 07:13:40;;;;;;;11.98;2.88;;;10.00;99.90;;;;;;5143787;27;20095;-30
2023/05/02 07:16:06;;;;;;;7.75;2.85;;;10.00;99.90;;;;;;5134737;27;20042;-30
2023/05/02 07:18:32;;;;;;;6.53;2.95;;;10.00;99.90;;;;;;5149542;27;20427;-30
2023/05/02 07:21:00;;;;;;;9.90;3.13;;;9.90;99.90;;;;;;5143957;27;20034;-31
2023/05/02 07:23:26;;;;;;;11.45;3.92;;;10.10;99.90;;;;;;5146673;27;20099;-30
2023/05/02 07:25:52;;;;;;;8.90;3.53;;;10.00;99.90;;;;;;5142904;27;20118;-30
2023/05/02 07:28:17;;;;;;;7.20;3.10;;;10.00;99.90;;;;;;5150264;27;20534;-30
2023/05/02 07:30:43;;;;;;;7.28;3.08;;;10.00;99.90;;;;;;5150993;27;20063;-31
2023/05/02 07:33:09;;;;;;;7.57;2.83;;;10.10;99.90;;;;;;5156604;27;20026;-31
2023/05/02 07:35:34;;;;;;;8.48;3.20;;;10.20;99.90;;;;;;5159363;27;20030;-30
2023/05/02 07:38:00;;;;;;;8.70;3.30;;;10.10;99.90;;;;;;5153157;27;20373;-30
2023/05/02 07:40:27;;;;;;;10.98;3.35;;;10.20;99.90;;;;;;5154455;27;20039;-30
2023/05/02 07:42:53;;;;;;;9.75;3.65;;;10.20;99.90;;;;;;5151834;27;20459;-31
2023/05/02 07:45:18;;;;;;;8.65;3.20;;;10.20;99.90;;;;;;5144309;27;20062;-30
2023/05/02 07:47:45;;;;;;;9.20;3.13;;;10.40;99.90;;;;;;5146684;27;20487;-30
2023/05/02 07:50:11;;;;;;;5.32;2.78;;;10.40;99.90;;;;;;5153201;27;20034;-30
2023/05/02 07:52:37;;;;;;;6.20;3.17;;;10.50;99.90;;;;;;5153457;27;20499;-30
2023/05/02 07:55:02;;;;;;;9.15;3.10;;;10.60;99.90;;;;;;5145887;27;20125;-30
2023/05/02 07:57:28;;;;;;;8.23;3.67;;;10.70;99.90;;;;;;5142354;27;20042;-30
2023/05/02 07:59:56;;;;;;;8.07;3.38;;;10.70;99.90;;;;;;5138088;27;20039;-31
2023/05/02 08:02:22;;;;;;;9.93;3.80;;;10.60;99.90;;;;;;5134546;27;20443;-31
2023/05/02 08:04:48;;;;;;;13.45;4.07;;;10.60;99.90;;;;;;5153390;27;20074;-30
2023/05/02 08:07:15;;;;;;;6.30;3.30;;;10.50;99.90;;;;;;5174878;27;20033;-30
2023/05/02 08:09:41;;;;;;;12.85;4.45;;;10.70;99.90;;;;;;5145791;27;20070;-31
2023/05/02 08:12:06;;;;;;;6.57;3.53;;;10.60;99.90;;;;;;5152233;27;20039;-30
2023/05/02 08:14:32;;;;;;;5.75;2.60;;;10.70;99.90;;;;;;5143533;27;20395;-30
2023/05/02 08:16:59;;;;;;;7.20;2.80;;;10.80;99.90;;;;;;5147291;27;20503;-31
2023/05/02 08:19:25;;;;;;;10.57;3.28;;;10.70;99.90;;;;;;5158571;27;20038;-30
2023/05/02 08:21:53;;;;;;;10.13;3.95;;;10.80;99.90;;;;;;5148263;27;20035;-30
2023/05/02 08:24:18;;;;;;;8.45;2.65;;;10.80;99.90;;;;;;5148068;27;20034;-30
2023/05/02 08:26:44;;;;;;;5.57;2.83;;;10.70;99.90;;;;;;5126099;27;20454;-30
2023/05/02 08:29:10;;;;;;;5.88;2.70;;;10.80;99.90;;;;;;5140739;27;20045;-30
2023/05/02 08:31:37;;;;;;;10.13;2.80;;;10.80;99.90;;;;;;5140221;27;20446;-30
2023/05/02 08:34:03;;;;;;;10.35;3.15;;;10.80;99.90;;;;;;5144075;27;20076;-30
2023/05/02 08:36:28;;;;;;;7.80;2.78;;;10.90;99.90;;;;;;5153111;27;20038;-31
2023/05/02 08:38:54;;;;;;;10.57;3.40;;;10.90;99.90;;;;;;5148578;27;20424;-30
2023/05/02 08:41:22;;;;;;;6.97;3.10;;;11.00;99.90;;;;;;5143165;27;20049;-30
2023/05/02 08:43:48;;;;;;;6.45;3.15;;;11.10;99.90;;;;;;5157931;27;20039;-30
2023/05/02 08:46:15;;;;;;;10.00;3.63;;;11.10;99.90;;;;;;5149258;27;20071;-30
2023/05/02 08:48:43;;;;;;;5.43;3.05;;;11.40;99.90;;;;;;5144278;27;20340;-30
2023/05/02 08:51:12;;;;;;;5.50;2.90;;;11.50;99.90;;;;;;5154085;27;20045;-30
2023/05/02 08:53:39;;;;;;;6.45;2.47;;;11.60;99.90;;;;;;5145129;27;20039;-30
2023/05/02 08:56:09;;;;;;;6.40;2.55;;;11.80;99.90;;;;;;5157538;27;20078;-30
2023/05/02 08:58:38;;;;;;;4.13;2.40;;;12.20;99.90;;;;;;5145510;27;20467;-30
2023/05/02 09:01:12;;;;;;;9.02;3.00;;;12.30;99.90;;;;;;5145338;27;20600;-30
2023/05/02 09:03:39;;;;;;;9.73;3.13;;;12.40;99.90;;;;;;5145388;27;20039;-30
2023/05/02 09:06:07;;;;;;;8.15;2.95;;;12.40;99.90;;;;;;5148485;27;20109;-30
2023/05/02 09:08:37;;;;;;;7.80;3.05;;;12.70;99.90;;;;;;5143772;27;20030;-30
2023/05/02 09:11:03;;;;;;;7.32;3.03;;;12.70;99.90;;;;;;5142472;27;20807;-31
2023/05/02 09:13:44;;;;;;;6.00;2.85;;;13.10;99.90;;;;;;5149105;27;20041;-31
2023/05/02 09:16:11;;;;;;;5.22;2.78;;;13.20;99.90;;;;;;5140933;27;20099;-30
2023/05/02 09:18:38;;;;;;;7.10;3.13;;;13.50;99.90;;;;;;5145913;27;20056;-30
2023/05/02 09:21:07;;;;;;;6.97;3.35;;;13.40;99.90;;;;;;5151388;27;20505;-30
2023/05/02 09:23:40;;;;;;;5.90;2.53;;;13.60;99.90;;;;;;5156477;27;20035;-30
2023/05/02 09:26:15;;;;;;;8.43;3.40;;;13.60;99.90;;;;;;5148163;27;20030;-31
2023/05/02 09:28:42;;;;;;;7.07;2.53;;;13.70;99.90;;;;;;5139388;27;20034;-31
2023/05/02 09:31:09;;;;;;;4.90;2.25;;;13.80;99.90;;;;;;5136576;27;20046;-30
2023/05/02 09:33:37;;;;;;;6.80;2.33;;;13.80;99.90;;;;;;5143147;27;20106;-30
2023/05/02 09:36:03;;;;;;;8.35;2.67;;;13.80;98.20;;;;;;5143567;27;20130;-31
2023/05/02 09:38:29;;;;;;;6.20;2.60;;;13.70;95.40;;;;;;5149772;27;20551;-30
2023/05/02 09:40:55;;;;;;;8.20;2.40;;;13.90;96.50;;;;;;5136109;27;20038;-31
2023/05/02 09:43:21;;;;;;;6.75;3.53;;;13.70;96.80;;;;;;5142428;27;20467;-30
2023/05/02 09:45:57;;;;;;;5.80;2.83;;;13.60;97.40;;;;;;5146909;27;20387;-30
2023/05/02 09:48:24;;;;;;;6.32;2.72;;;13.60;90.80;;;;;;5145559;27;20045;-30
2023/05/02 09:50:50;;;;;;;5.95;2.80;;;13.30;97.20;;;;;;5143066;27;20038;-30
2023/05/02 09:53:15;;;;;;;7.43;2.60;;;13.10;98.70;;;;;;5138837;27;20037;-30
2023/05/02 09:55:41;;;;;;;7.60;2.92;;;13.10;98.20;;;;;;5134327;27;20034;-30
2023/05/02 09:58:21;;;;;;;7.97;3.15;;;13.00;99.90;;;;;;5145640;27;20043;-31
2023/05/02 10:00:47;;;;;;;4.50;2.83;;;12.80;97.40;;;;;;5155070;27;20041;-31
2023/05/02 10:03:16;;;;;;;4.65;2.70;;;12.80;99.90;;;;;;5140799;27;20027;-30
2023/05/02 10:05:45;;;;;;;5.18;2.60;;;12.80;99.90;;;;;;5148454;27;20045;-31
2023/05/02 10:08:12;;;;;;;6.07;2.38;;;12.70;99.90;;;;;;5138440;27;20035;-30
2023/05/02 10:10:40;;;;;;;6.07;2.45;;;12.90;99.90;;;;;;5135484;27;20119;-30
2023/05/02 10:13:11;;;;;;;4.90;2.42;;;12.90;99.90;;;;;;5142642;27;20035;-31
2023/05/02 10:15:42;;;;;;;5.82;2.42;;;13.00;99.90;;;;;;5156385;27;20034;-31
2023/05/02 10:18:13;;;;;;;6.07;2.53;;;13.30;99.90;;;;;;5143774;27;20421;-31
2023/05/02 10:20:46;;;;;;;4.15;2.28;;;13.60;97.30;;;;;;5156074;27;20418;-31
2023/05/02 10:23:14;;;;;;;6.70;2.53;;;13.70;97.00;;;;;;5154570;27;20390;-31
2023/05/02 10:25:40;;;;;;;5.13;1.80;;;14.00;97.70;;;;;;5146658;27;20082;-31
2023/05/02 10:28:06;;;;;;;7.32;2.38;;;14.00;96.60;;;;;;5149630;27;20118;-31
2023/05/02 10:30:34;;;;;;;4.20;2.10;;;13.90;94.80;;;;;;5142346;27;20566;-31
2023/05/02 10:33:00;;;;;;;5.82;2.40;;;14.00;93.50;;;;;;5142600;27;20030;-30
2023/05/02 10:35:26;;;;;;;6.57;2.60;;;13.90;94.10;;;;;;5135214;27;20042;-31
2023/05/02 10:37:52;;;;;;;4.28;2.05;;;13.90;92.80;;;;;;5146529;27;20448;-31
2023/05/02 10:40:18;;;;;;;4.25;2.70;;;13.80;93.60;;;;;;5138171;27;20061;-31
2023/05/02 10:42:46;;;;;;;6.57;2.78;;;13.80;92.80;;;;;;5144391;27;20129;-31
2023/05/02 10:45:33;;;;;;;8.18;2.55;;;13.60;92.50;;;;;;5160262;27;20085;-30
2023/05/02 10:48:25;;;;;;;6.75;2.38;;;13.50;93.70;;;;;;5141749;27;20050;-30
2023/05/02 10:51:00;;;;;;;4.40;2.30;;;13.60;91.10;;;;;;5130794;27;20076;-32
2023/05/02 10:53:31;;;;;;;4.28;2.20;;;13.80;93.30;;;;;;5154599;27;20066;-32
2023/05/02 10:56:23;;;;;;;3.38;2.20;;;14.10;95.10;;;;;;5148751;27;20035;-32
2023/05/02 10:58:50;;;;;;;7.38;1.92;;;14.60;95.20;;;;;;5141193;27;20110;-32
2023/05/02 11:01:28;;;;;;;5.15;1.80;;;15.10;92.20;;;;;;5138427;27;20033;-33
2023/05/02 11:03:57;;;;;;;4.53;1.92;;;15.30;87.30;;;;;;5143864;27;20035;-32
2023/05/02 11:06:55;;;;;;;3.05;1.40;;;15.60;87.10;;;;;;5153978;27;20095;-34
2023/05/02 11:09:21;;;;;;;3.22;2.05;;;15.80;83.20;;;;;;5142487;27;20054;-33
2023/05/02 11:11:49;;;;;;;5.30;1.88;;;15.90;85.20;;;;;;5142152;27;20034;-33
2023/05/02 11:14:38;;;;;;;4.55;1.98;;;15.80;84.30;;;;;;5149827;27;20042;-33
2023/05/02 11:17:03;;;;;;;4.13;2.00;;;15.70;80.50;;;;;;5126858;27;20042;-34
2023/05/02 11:19:55;;;;;;;3.25;1.70;;;15.60;83.00;;;;;;5147978;27;20501;-32
2023/05/02 11:22:22;;;;;;;4.07;1.70;;;15.70;82.60;;;;;;5143824;27;20403;-33
2023/05/02 11:24:49;;;;;;;2.20;1.45;;;15.70;83.30;;;;;;5155936;27;20118;-32
2023/05/02 11:30:06;;;;;;;6.47;2.00;;;15.90;81.70;;;;;;5170611;27;20396;-33
2023/05/02 11:32:52;;;;;;;4.55;1.65;;;15.80;81.30;;;;;;5139518;27;20114;-32
2023/05/02 11:35:25;;;;;;;4.20;1.77;;;15.50;81.70;;;;;;5131643;27;20050;-33
2023/05/02 11:37:54;;;;;;;;;;;15.30;81.60;;;;;;5171933;27;20031;-32
2023/05/02 11:40:21;;;;;;;4.28;1.80;;;15.20;81.20;;;;;;5138630;27;20009;-32
2023/05/02 11:42:46;;;;;;;1.65;1.40;;;15.30;83.70;;;;;;5141726;27;20204;-33
2023/05/02 11:45:12;;;;;;;6.30;1.73;;;15.40;83.20;;;;;;5142814;27;20030;-33
2023/05/02 11:47:40;;;;;;;3.38;1.48;;;15.30;82.70;;;;;;5145415;27;20041;-33
2023/05/02 11:50:06;;;;;;;6.75;2.35;;;15.30;81.70;;;;;;5146911;27;20030;-33
2023/05/02 11:52:43;;;;;;;3.70;1.80;;;15.40;81.20;;;;;;5143074;27;20086;-33
2023/05/02 11:55:13;;;;;;;5.95;1.55;;;15.10;80.40;;;;;;5149675;27;20034;-33
2023/05/02 11:57:40;;;;;;;3.47;1.40;;;14.90;81.80;;;;;;5147852;27;20084;-32
2023/05/02 12:00:07;;;;;;;3.30;1.60;;;14.90;82.20;;;;;;5148967;27;20034;-33
2023/05/02 12:02:39;;;;;;;6.88;1.55;;;14.80;82.20;;;;;;5141202;27;20041;-32
2023/05/02 12:05:07;;;;;;;4.85;1.50;;;15.00;82.80;;;;;;5144054;27;20113;-33
2023/05/02 12:07:43;;;;;;;3.95;1.20;;;15.30;83.00;;;;;;5152330;27;20408;-33
2023/05/02 12:10:09;;;;;;;2.65;1.35;;;15.20;81.40;;;;;;5145066;27;20049;-32
2023/05/02 12:12:36;;;;;;;1.58;1.20;;;14.90;81.70;;;;;;5157932;27;20080;-33
2023/05/02 12:15:06;;;;;;;4.05;1.20;;;14.80;82.10;;;;;;5137980;27;20069;-32
2023/05/02 12:17:35;;;;;;;2.83;1.20;;;14.80;82.20;;;;;;5144129;27;20095;-32
2023/05/02 12:20:03;;;;;;;2.05;1.33;;;14.80;82.70;;;;;;5142638;27;20066;-33
2023/05/02 12:22:30;;;;;;;3.03;1.52;;;14.80;82.70;;;;;;5153849;27;20386;-33
2023/05/02 12:24:56;;;;;;;3.08;1.40;;;14.70;82.90;;;;;;5142414;27;20137;-32
2023/05/02 12:27:22;;;;;;;3.38;1.50;;;14.70;83.00;;;;;;5138069;27;20106;-33
2023/05/02 12:29:48;;;;;;;3.28;1.30;;;14.90;83.50;;;;;;5148909;27;20034;-32
2023/05/02 12:32:25;;;;;;;4.85;1.40;;;15.00;83.60;;;;;;5149556;27;20507;-32
2023/05/02 12:34:51;;;;;;;2.97;1.50;;;14.90;83.40;;;;;;5139334;27;20484;-33
2023/05/02 12:37:23;;;;;;;1.92;1.13;;;14.90;83.10;;;;;;5145212;27;20104;-32
2023/05/02 12:39:48;;;;;;;2.40;1.40;;;14.90;83.20;;;;;;5139455;27;20042;-32
2023/05/02 12:42:19;;;;;;;3.20;1.33;;;14.70;83.30;;;;;;5170517;27;20038;-33
2023/05/02 12:44:46;;;;;;;4.97;1.50;;;14.60;83.20;;;;;;5148205;27;20034;-33
2023/05/02 12:47:16;;;;;;;3.47;1.27;;;14.50;83.70;;;;;;5169674;27;20027;-33
2023/05/02 12:49:52;;;;;;;5.10;1.65;;;14.40;84.40;;;;;;5149052;27;20090;-32
2023/05/02 12:52:38;;;;;;;5.60;2.22;;;14.30;84.90;;;;;;5148060;27;20043;-32
2023/05/02 12:55:20;;;;;;;2.50;1.98;;;14.30;85.30;;;;;;5153352;27;20038;-33